createdAt,value
2022-08-04T00:00:20.911Z,25.35
2022-08-04T00:01:20.964Z,25.42
2022-08-04T00:02:20.925Z,25.39
2022-08-04T00:03:20.945Z,25.40
2022-08-04T00:04:20.958Z,25.40
2022-08-04T00:05:20.948Z,25.39
2022-08-04T00:06:20.955Z,25.36
2022-08-04T00:07:21.162Z,25.35
2022-08-04T00:08:20.958Z,25.38
2022-08-04T00:09:20.984Z,25.40
2022-08-04T00:10:20.974Z,25.33
2022-08-04T00:11:20.990Z,25.38
2022-08-04T00:12:20.986Z,25.30
2022-08-04T00:13:21.004Z,25.33
2022-08-04T00:14:21.035Z,25.28
2022-08-04T00:15:21.044Z,25.39
2022-08-04T00:16:21.037Z,25.32
2022-08-04T00:17:21.317Z,25.38
2022-08-04T00:18:21.041Z,25.33
2022-08-04T00:19:21.046Z,25.36
2022-08-04T00:20:21.070Z,25.38
2022-08-04T00:21:21.076Z,25.28
2022-08-04T00:22:21.067Z,25.38
2022-08-04T00:23:21.061Z,25.32
2022-08-04T00:24:21.079Z,25.36
2022-08-04T00:25:21.090Z,25.28
2022-08-04T00:26:21.108Z,25.33
2022-08-04T00:27:21.222Z,25.33
2022-08-04T00:28:21.153Z,25.28
2022-08-04T00:29:21.115Z,25.33
2022-08-04T00:30:21.152Z,25.33
2022-08-04T00:31:21.122Z,25.24
2022-08-04T00:32:29.918Z,25.23
2022-08-04T00:33:21.166Z,25.25
2022-08-04T00:34:21.152Z,25.18
2022-08-04T00:35:21.145Z,25.18
2022-08-04T00:36:21.166Z,25.14
2022-08-04T00:37:21.360Z,25.13
2022-08-04T00:38:21.184Z,25.09
2022-08-04T00:39:21.265Z,25.09
2022-08-04T00:40:21.181Z,25.05
2022-08-04T00:41:21.202Z,25.18
2022-08-04T00:42:21.196Z,25.13
2022-08-04T00:43:21.226Z,25.14
2022-08-04T00:44:23.458Z,25.06
2022-08-04T00:45:21.218Z,25.08
2022-08-04T00:46:21.233Z,25.08
2022-08-04T00:47:21.400Z,24.93
2022-08-04T00:48:21.244Z,24.93
2022-08-04T00:49:21.278Z,24.96
2022-08-04T00:50:21.254Z,24.96
2022-08-04T00:51:21.272Z,24.91
2022-08-04T00:52:31.496Z,25.03
2022-08-04T00:53:21.271Z,24.93
2022-08-04T00:54:21.310Z,24.96
2022-08-04T00:55:21.281Z,25.02
2022-08-04T00:56:21.302Z,24.99
2022-08-04T00:57:34.056Z,24.99
2022-08-04T00:58:21.304Z,25.06
2022-08-04T00:59:21.334Z,25.08
2022-08-04T01:00:21.337Z,25.08
2022-08-04T01:01:21.432Z,24.99
2022-08-04T01:02:21.327Z,25.03
2022-08-04T01:03:21.359Z,25.03
2022-08-04T01:04:22.246Z,25.08
2022-08-04T01:05:21.372Z,25.05
2022-08-04T01:06:21.357Z,25.06
2022-08-04T01:07:21.606Z,25.00
2022-08-04T01:08:21.372Z,24.98
2022-08-04T01:09:21.889Z,24.99
2022-08-04T01:10:21.392Z,25.00
2022-08-04T01:11:21.428Z,25.03
2022-08-04T01:12:21.406Z,24.99
2022-08-04T01:13:21.437Z,24.95
2022-08-04T01:14:21.430Z,24.93
2022-08-04T01:15:21.432Z,24.85
2022-08-04T01:16:21.431Z,24.91
2022-08-04T01:17:21.693Z,24.78
2022-08-04T01:18:21.451Z,24.76
2022-08-04T01:19:21.480Z,24.80
2022-08-04T01:20:21.463Z,24.84
2022-08-04T01:21:21.471Z,24.81
2022-08-04T01:22:21.474Z,24.81
2022-08-04T01:23:21.521Z,24.77
2022-08-04T01:24:21.477Z,24.76
2022-08-04T01:25:21.487Z,24.76
2022-08-04T01:26:42.139Z,24.78
2022-08-04T01:27:21.769Z,24.87
2022-08-04T01:28:21.508Z,24.93
2022-08-04T01:29:21.535Z,24.73
2022-08-04T01:30:21.525Z,24.77
2022-08-04T01:31:21.545Z,24.76
2022-08-04T01:32:26.084Z,24.87
2022-08-04T01:33:21.545Z,24.83
2022-08-04T01:34:21.556Z,24.76
2022-08-04T01:35:22.080Z,24.71
2022-08-04T01:36:21.573Z,24.71
2022-08-04T01:37:21.868Z,24.71
2022-08-04T01:38:22.085Z,24.71
2022-08-04T01:39:21.671Z,24.77
2022-08-04T01:40:21.600Z,24.68
2022-08-04T01:41:32.213Z,24.68
2022-08-04T01:42:31.938Z,24.68
2022-08-04T01:43:21.654Z,24.68
2022-08-04T01:44:21.645Z,24.71
2022-08-04T01:45:21.655Z,24.69
2022-08-04T01:46:21.658Z,24.69
2022-08-04T01:47:21.834Z,24.57
2022-08-04T01:48:21.943Z,24.60
2022-08-04T01:49:21.696Z,24.62
2022-08-04T01:50:21.677Z,24.67
2022-08-04T01:51:21.681Z,24.71
2022-08-04T01:52:21.701Z,24.62
2022-08-04T01:53:21.705Z,24.61
2022-08-04T01:54:21.711Z,24.64
2022-08-04T01:55:21.730Z,24.52
2022-08-04T01:56:21.745Z,24.50
2022-08-04T01:57:37.648Z,24.43
2022-08-04T01:58:21.704Z,24.47
2022-08-04T01:59:21.739Z,24.46
2022-08-04T02:00:21.743Z,24.40
2022-08-04T02:01:21.780Z,24.37
2022-08-04T02:02:21.869Z,24.31
2022-08-04T02:03:21.758Z,24.45
2022-08-04T02:04:23.479Z,24.32
2022-08-04T02:05:21.786Z,24.45
2022-08-04T02:06:21.776Z,24.37
2022-08-04T02:07:22.000Z,24.35
2022-08-04T02:08:21.778Z,24.34
2022-08-04T02:09:21.783Z,24.40
2022-08-04T02:10:21.811Z,24.39
2022-08-04T02:11:21.809Z,24.34
2022-08-04T02:12:21.817Z,24.45
2022-08-04T02:13:21.846Z,24.39
2022-08-04T02:14:21.833Z,24.32
2022-08-04T02:15:21.852Z,24.25
2022-08-04T02:16:21.816Z,24.30
2022-08-04T02:17:22.049Z,24.28
2022-08-04T02:18:21.863Z,24.32
2022-08-04T02:19:21.868Z,24.35
2022-08-04T02:20:21.845Z,24.24
2022-08-04T02:21:21.853Z,24.24
2022-08-04T02:22:21.880Z,24.28
2022-08-04T02:23:21.876Z,24.24
2022-08-04T02:24:21.897Z,24.21
2022-08-04T02:25:21.878Z,24.24
2022-08-04T02:26:22.207Z,24.21
2022-08-04T02:27:22.162Z,24.08
2022-08-04T02:28:21.900Z,24.09
2022-08-04T02:29:21.934Z,24.08
2022-08-04T02:30:21.922Z,24.12
2022-08-04T02:31:21.929Z,24.10
2022-08-04T02:32:21.930Z,24.15
2022-08-04T02:33:21.932Z,24.13
2022-08-04T02:34:21.969Z,24.12
2022-08-04T02:35:21.953Z,24.12
2022-08-04T02:36:22.006Z,24.16
2022-08-04T02:37:22.217Z,24.05
2022-08-04T02:38:25.613Z,24.09
2022-08-04T02:39:22.019Z,24.08
2022-08-04T02:40:21.986Z,24.03
2022-08-04T02:41:22.028Z,24.02
2022-08-04T02:42:21.998Z,24.00
2022-08-04T02:43:52.184Z,24.02
2022-08-04T02:44:22.013Z,23.90
2022-08-04T02:45:22.019Z,23.88
2022-08-04T02:46:22.065Z,23.93
2022-08-04T02:47:22.565Z,23.85
2022-08-04T02:48:30.681Z,23.88
2022-08-04T02:49:22.044Z,23.84
2022-08-04T02:50:28.267Z,23.88
2022-08-04T02:51:22.091Z,23.79
2022-08-04T02:52:22.094Z,23.83
2022-08-04T02:53:22.102Z,23.84
2022-08-04T02:54:32.533Z,23.87
2022-08-04T02:55:22.106Z,23.80
2022-08-04T02:56:22.110Z,23.79
2022-08-04T02:57:22.441Z,23.78
2022-08-04T02:58:22.131Z,23.76
2022-08-04T02:59:22.099Z,23.70
2022-08-04T03:00:22.147Z,23.76
2022-08-04T03:01:22.175Z,23.84
2022-08-04T03:02:22.134Z,23.79
2022-08-04T03:03:22.148Z,23.73
2022-08-04T03:04:25.158Z,23.70
2022-08-04T03:05:22.129Z,23.61
2022-08-04T03:06:22.152Z,23.63
2022-08-04T03:07:22.305Z,23.57
2022-08-04T03:08:22.161Z,23.63
2022-08-04T03:09:22.173Z,23.61
2022-08-04T03:10:22.176Z,23.58
2022-08-04T03:11:22.166Z,23.57
2022-08-04T03:12:22.202Z,23.60
2022-08-04T03:13:22.213Z,23.58
2022-08-04T03:14:22.218Z,23.66
2022-08-04T03:15:22.210Z,23.55
2022-08-04T03:16:22.205Z,23.60
2022-08-04T03:17:22.599Z,23.55
2022-08-04T03:18:22.210Z,23.57
2022-08-04T03:19:22.262Z,23.58
2022-08-04T03:20:22.220Z,23.54
2022-08-04T03:21:22.238Z,23.58
2022-08-04T03:22:22.279Z,23.61
2022-08-04T03:23:22.275Z,23.61
2022-08-04T03:24:22.260Z,23.58
2022-08-04T03:25:22.265Z,23.54
2022-08-04T03:26:22.309Z,23.57
2022-08-04T03:27:22.559Z,23.51
2022-08-04T03:28:22.274Z,23.47
2022-08-04T03:29:36.100Z,23.53
2022-08-04T03:30:22.293Z,23.57
2022-08-04T03:31:22.285Z,23.51
2022-08-04T03:32:22.309Z,23.48
2022-08-04T03:33:22.311Z,23.48
2022-08-04T03:34:22.343Z,23.50
2022-08-04T03:35:22.674Z,23.46
2022-08-04T03:36:23.561Z,23.47
2022-08-04T03:37:22.598Z,23.31
2022-08-04T03:38:22.333Z,23.33
2022-08-04T03:39:22.397Z,23.28
2022-08-04T03:40:22.338Z,23.22
2022-08-04T03:41:50.876Z,23.10
2022-08-04T03:42:22.363Z,23.12
2022-08-04T03:43:57.314Z,23.10
2022-08-04T03:44:22.375Z,23.15
2022-08-04T03:45:23.404Z,23.25
2022-08-04T03:46:22.394Z,23.20
2022-08-04T03:47:22.677Z,23.15
2022-08-04T03:48:22.396Z,23.23
2022-08-04T03:49:22.398Z,23.16
2022-08-04T03:50:22.420Z,23.28
2022-08-04T03:51:35.781Z,23.25
2022-08-04T03:52:22.431Z,23.28
2022-08-04T03:53:22.412Z,23.28
2022-08-04T03:54:22.448Z,23.31
2022-08-04T03:55:22.424Z,23.22
2022-08-04T03:56:22.433Z,23.27
2022-08-04T03:57:22.854Z,23.22
2022-08-04T03:58:22.464Z,23.27
2022-08-04T03:59:22.446Z,23.28
2022-08-04T04:00:22.472Z,23.27
2022-08-04T04:01:22.460Z,23.31
2022-08-04T04:02:22.528Z,23.28
2022-08-04T04:03:28.230Z,23.27
2022-08-04T04:04:22.500Z,23.22
2022-08-04T04:05:22.486Z,23.23
2022-08-04T04:06:22.494Z,23.25
2022-08-04T04:07:22.610Z,23.20
2022-08-04T04:08:22.509Z,23.16
2022-08-04T04:09:22.526Z,23.16
2022-08-04T04:10:26.555Z,23.12
2022-08-04T04:11:22.520Z,23.16
2022-08-04T04:12:22.554Z,23.22
2022-08-04T04:13:30.516Z,23.16
2022-08-04T04:14:22.539Z,23.28
2022-08-04T04:15:22.547Z,23.28
2022-08-04T04:16:22.559Z,23.17
2022-08-04T04:17:22.870Z,23.19
2022-08-04T04:18:22.585Z,23.13
2022-08-04T04:19:22.563Z,23.02
2022-08-04T04:20:22.568Z,22.95
2022-08-04T04:21:22.591Z,22.97
2022-08-04T04:22:22.578Z,23.05
2022-08-04T04:23:22.584Z,22.97
2022-08-04T04:24:22.631Z,22.94
2022-08-04T04:25:22.605Z,23.04
2022-08-04T04:26:22.631Z,23.00
2022-08-04T04:27:22.937Z,23.05
2022-08-04T04:28:43.570Z,22.98
2022-08-04T04:29:22.617Z,23.02
2022-08-04T04:30:22.624Z,23.05
2022-08-04T04:31:22.655Z,23.10
2022-08-04T04:32:22.649Z,23.02
2022-08-04T04:33:22.648Z,23.05
2022-08-04T04:34:22.659Z,23.07
2022-08-04T04:35:22.660Z,23.04
2022-08-04T04:36:22.658Z,23.02
2022-08-04T04:37:23.166Z,23.02
2022-08-04T04:38:22.671Z,23.01
2022-08-04T04:39:22.710Z,22.94
2022-08-04T04:40:22.691Z,23.04
2022-08-04T04:41:22.692Z,23.04
2022-08-04T04:42:22.704Z,23.09
2022-08-04T04:43:22.697Z,23.04
2022-08-04T04:44:25.213Z,23.05
2022-08-04T04:45:22.717Z,23.00
2022-08-04T04:46:22.714Z,23.09
2022-08-04T04:48:07.332Z,23.09
2022-08-04T04:48:22.744Z,23.10
2022-08-04T04:49:22.742Z,23.04
2022-08-04T04:50:22.741Z,23.13
2022-08-04T04:51:22.738Z,23.12
2022-08-04T04:52:22.752Z,23.10
2022-08-04T04:53:22.773Z,23.12
2022-08-04T04:54:22.766Z,23.05
2022-08-04T04:55:22.778Z,23.05
2022-08-04T04:56:22.794Z,23.07
2022-08-04T04:57:52.962Z,23.04
2022-08-04T04:58:22.778Z,23.04
2022-08-04T04:59:22.802Z,23.07
2022-08-04T05:00:22.828Z,23.12
2022-08-04T05:01:22.807Z,23.09
2022-08-04T05:02:22.802Z,23.09
2022-08-04T05:03:22.807Z,23.15
2022-08-04T05:04:22.820Z,23.05
2022-08-04T05:05:22.826Z,23.07
2022-08-04T05:06:22.849Z,23.09
2022-08-04T05:07:23.311Z,23.10
2022-08-04T05:08:45.534Z,23.07
2022-08-04T05:09:22.853Z,23.19
2022-08-04T05:10:22.855Z,23.20
2022-08-04T05:11:22.870Z,23.22
2022-08-04T05:14:32.367Z,23.20
2022-08-04T05:14:34.618Z,23.22
2022-08-04T05:14:38.593Z,23.32
2022-08-04T05:15:25.605Z,23.31
2022-08-04T05:16:22.885Z,23.33
2022-08-04T05:17:23.149Z,23.25
2022-08-04T05:18:22.913Z,23.31
2022-08-04T05:19:22.901Z,23.33
2022-08-04T05:20:22.913Z,23.32
2022-08-04T05:21:22.914Z,23.38
2022-08-04T05:22:22.910Z,23.40
2022-08-04T05:23:22.926Z,23.35
2022-08-04T05:24:22.920Z,23.46
2022-08-04T05:25:22.953Z,23.43
2022-08-04T05:26:22.942Z,23.53
2022-08-04T05:27:23.165Z,23.54
2022-08-04T05:28:22.942Z,23.55
2022-08-04T05:29:22.954Z,23.57
2022-08-04T05:30:22.987Z,23.54
2022-08-04T05:31:22.956Z,23.58
2022-08-04T05:32:22.962Z,23.57
2022-08-04T05:33:26.062Z,23.63
2022-08-04T05:34:23.003Z,23.63
2022-08-04T05:35:47.794Z,23.66
2022-08-04T05:36:39.892Z,23.76
2022-08-04T05:37:23.322Z,23.72
2022-08-04T05:38:23.005Z,23.76
2022-08-04T05:39:23.094Z,23.76
2022-08-04T05:40:23.019Z,23.69
2022-08-04T05:41:23.030Z,23.85
2022-08-04T05:42:23.420Z,23.83
2022-08-04T05:43:23.025Z,23.84
2022-08-04T05:44:23.037Z,23.91
2022-08-04T05:45:23.048Z,23.98
2022-08-04T05:46:23.054Z,23.98
2022-08-04T05:47:23.339Z,23.98
2022-08-04T05:48:23.059Z,24.05
2022-08-04T05:49:23.060Z,24.08
2022-08-04T05:50:23.080Z,24.08
2022-08-04T05:51:23.094Z,24.13
2022-08-04T05:52:23.087Z,24.12
2022-08-04T05:53:23.096Z,24.22
2022-08-04T05:54:23.086Z,24.24
2022-08-04T05:55:57.090Z,24.32
2022-08-04T05:56:23.122Z,24.32
2022-08-04T05:57:23.397Z,24.31
2022-08-04T05:58:23.125Z,24.40
2022-08-04T05:59:23.121Z,24.39
2022-08-04T06:00:40.271Z,24.43
2022-08-04T06:01:23.193Z,24.47
2022-08-04T06:02:23.169Z,24.49
2022-08-04T06:03:23.161Z,24.52
2022-08-04T06:04:23.150Z,24.67
2022-08-04T06:05:23.164Z,24.67
2022-08-04T06:06:23.162Z,24.71
2022-08-04T06:07:23.328Z,24.76
2022-08-04T06:08:23.160Z,24.71
2022-08-04T06:09:23.190Z,24.69
2022-08-04T06:10:29.273Z,24.83
2022-08-04T06:11:23.191Z,24.84
2022-08-04T06:12:23.990Z,24.90
2022-08-04T06:13:46.724Z,25.00
2022-08-04T06:14:23.221Z,24.96
2022-08-04T06:15:25.308Z,25.06
2022-08-04T06:16:28.795Z,25.15
2022-08-04T06:18:33.814Z,25.20
2022-08-04T06:19:56.569Z,25.28
2022-08-04T06:20:00.625Z,25.32
2022-08-04T06:20:23.817Z,25.30
2022-08-04T06:21:23.242Z,25.43
2022-08-04T06:22:23.259Z,25.57
2022-08-04T06:23:23.256Z,25.60
2022-08-04T06:24:23.270Z,25.67
2022-08-04T06:25:23.335Z,25.72
2022-08-04T06:26:23.272Z,25.79
2022-08-04T06:27:23.537Z,25.82
2022-08-04T06:28:23.286Z,25.90
2022-08-04T06:29:23.319Z,25.99
2022-08-04T06:30:23.322Z,26.05
2022-08-04T06:32:27.478Z,26.13
2022-08-04T06:32:27.840Z,26.20
2022-08-04T06:33:23.321Z,26.23
2022-08-04T06:34:23.333Z,26.25
2022-08-04T06:35:23.350Z,26.35
2022-08-04T06:36:23.327Z,26.50
2022-08-04T06:37:41.223Z,26.44
2022-08-04T06:38:23.353Z,26.54
2022-08-04T06:39:23.401Z,26.65
2022-08-04T06:40:31.035Z,26.72
2022-08-04T06:41:23.379Z,26.72
2022-08-04T06:42:23.388Z,26.80
2022-08-04T06:43:23.375Z,26.84
2022-08-04T06:44:26.272Z,26.84
2022-08-04T06:45:23.400Z,27.02
2022-08-04T06:46:23.395Z,27.06
2022-08-04T06:47:23.642Z,27.10
2022-08-04T06:48:23.407Z,27.17
2022-08-04T06:49:23.426Z,27.34
2022-08-04T06:51:27.653Z,27.31
2022-08-04T06:51:35.535Z,27.37
2022-08-04T06:52:23.443Z,27.49
2022-08-04T06:53:23.456Z,27.50
2022-08-04T06:54:23.466Z,27.69
2022-08-04T06:55:23.469Z,27.62
2022-08-04T06:56:23.475Z,27.72
2022-08-04T06:57:23.612Z,27.81
2022-08-04T06:58:23.482Z,27.82
2022-08-04T06:59:23.499Z,27.90
2022-08-04T07:00:23.502Z,27.88
2022-08-04T07:01:23.542Z,27.96
2022-08-04T07:02:23.503Z,27.99
2022-08-04T07:03:23.534Z,28.11
2022-08-04T07:04:23.532Z,28.15
2022-08-04T07:05:23.525Z,28.12
2022-08-04T07:06:23.539Z,28.25
2022-08-04T07:07:33.766Z,28.27
2022-08-04T07:08:23.566Z,28.30
2022-08-04T07:09:23.571Z,28.37
2022-08-04T07:10:23.563Z,28.40
2022-08-04T07:11:23.591Z,28.49
2022-08-04T07:12:23.584Z,28.56
2022-08-04T07:13:23.597Z,28.61
2022-08-04T07:14:23.589Z,28.58
2022-08-04T07:15:23.613Z,28.68
2022-08-04T07:16:29.697Z,28.70
2022-08-04T07:17:23.738Z,28.74
2022-08-04T07:18:23.633Z,28.78
2022-08-04T07:19:23.640Z,28.83
2022-08-04T07:20:34.023Z,28.95
2022-08-04T07:21:23.643Z,28.90
2022-08-04T07:22:25.627Z,29.06
2022-08-04T07:23:23.671Z,29.14
2022-08-04T07:24:23.748Z,29.19
2022-08-04T07:25:23.691Z,29.30
2022-08-04T07:26:23.706Z,29.27
2022-08-04T07:27:48.499Z,29.19
2022-08-04T07:28:23.708Z,29.30
2022-08-04T07:29:23.730Z,29.33
2022-08-04T07:30:24.999Z,29.34
2022-08-04T07:31:35.283Z,29.28
2022-08-04T07:32:23.743Z,29.31
2022-08-04T07:33:23.746Z,29.28
2022-08-04T07:34:23.761Z,29.24
2022-08-04T07:36:09.972Z,29.33
2022-08-04T07:36:23.757Z,29.43
2022-08-04T07:37:23.772Z,29.45
2022-08-04T07:38:27.743Z,29.46
2022-08-04T07:39:27.919Z,29.48
2022-08-04T07:40:23.867Z,29.60
2022-08-04T07:41:39.334Z,29.64
2022-08-04T07:42:23.812Z,29.65
2022-08-04T07:43:23.821Z,29.82
2022-08-04T07:44:23.823Z,29.78
2022-08-04T07:45:23.853Z,29.83
2022-08-04T07:46:23.858Z,29.97
2022-08-04T07:47:25.622Z,29.95
2022-08-04T07:48:23.860Z,30.07
2022-08-04T07:49:56.078Z,30.08
2022-08-04T07:50:23.894Z,30.11
2022-08-04T07:51:23.885Z,30.22
2022-08-04T07:52:23.912Z,30.19
2022-08-04T07:53:55.343Z,30.34
2022-08-04T07:54:23.917Z,30.37
2022-08-04T07:55:23.915Z,30.43
2022-08-04T07:56:23.926Z,30.47
2022-08-04T07:57:40.326Z,30.47
2022-08-04T07:58:24.650Z,30.58
2022-08-04T07:59:23.954Z,30.55
2022-08-04T08:00:23.977Z,30.55
2022-08-04T08:01:24.029Z,30.64
2022-08-04T08:02:24.002Z,30.69
2022-08-04T08:03:24.087Z,30.76
2022-08-04T08:04:24.005Z,30.83
2022-08-04T08:05:24.002Z,30.79
2022-08-04T08:06:32.164Z,30.82
2022-08-04T08:07:24.214Z,30.83
2022-08-04T08:08:24.042Z,30.88
2022-08-04T08:09:24.063Z,31.04
2022-08-04T08:10:24.059Z,30.98
2022-08-04T08:11:24.055Z,31.06
2022-08-04T08:12:37.268Z,31.13
2022-08-04T08:13:24.072Z,31.19
2022-08-04T08:14:24.112Z,31.19
2022-08-04T08:15:24.096Z,31.17
2022-08-04T08:16:24.097Z,31.26
2022-08-04T08:17:24.211Z,31.35
2022-08-04T08:18:24.125Z,31.32
2022-08-04T08:19:24.127Z,31.34
2022-08-04T08:20:29.411Z,31.38
2022-08-04T08:21:24.162Z,31.43
2022-08-04T08:22:24.151Z,31.47
2022-08-04T08:23:24.167Z,31.47
2022-08-04T08:24:24.184Z,31.44
2022-08-04T08:25:24.194Z,31.62
2022-08-04T08:26:24.211Z,31.62
2022-08-04T08:27:24.342Z,31.61
2022-08-04T08:28:24.214Z,31.63
2022-08-04T08:29:24.230Z,31.68
2022-08-04T08:30:24.250Z,31.72
2022-08-04T08:31:56.395Z,31.75
2022-08-04T08:32:24.267Z,31.84
2022-08-04T08:33:24.266Z,31.86
2022-08-04T08:34:28.196Z,31.89
2022-08-04T08:35:24.275Z,31.96
2022-08-04T08:36:24.348Z,32.04
2022-08-04T08:37:24.446Z,32.07
2022-08-04T08:38:24.299Z,32.14
2022-08-04T08:39:24.828Z,32.25
2022-08-04T08:40:39.179Z,32.22
2022-08-04T08:41:24.360Z,32.33
2022-08-04T08:42:24.346Z,32.38
2022-08-04T08:44:00.670Z,32.50
2022-08-04T08:44:37.936Z,32.57
2022-08-04T08:45:24.392Z,32.59
2022-08-04T08:46:45.336Z,32.69
2022-08-04T08:47:24.401Z,32.65
2022-08-04T08:48:24.410Z,32.63
2022-08-04T08:50:03.097Z,32.56
2022-08-04T08:50:24.426Z,32.63
2022-08-04T08:51:24.426Z,32.59
2022-08-04T08:53:00.839Z,32.67
2022-08-04T08:53:24.457Z,32.72
2022-08-04T08:54:24.463Z,32.75
2022-08-04T08:55:24.472Z,32.77
2022-08-04T08:56:31.215Z,32.81
2022-08-04T08:57:24.511Z,32.85
2022-08-04T08:58:24.534Z,32.92
2022-08-04T08:59:24.526Z,32.93
2022-08-04T09:00:31.539Z,32.94
2022-08-04T09:01:24.557Z,33.06
2022-08-04T09:02:24.534Z,32.94
2022-08-04T09:03:24.561Z,32.96
2022-08-04T09:04:27.698Z,32.96
2022-08-04T09:05:24.611Z,33.00
2022-08-04T09:06:24.588Z,33.04
2022-08-04T09:07:24.584Z,33.11
2022-08-04T09:08:24.607Z,33.11
2022-08-04T09:09:24.603Z,33.21
2022-08-04T09:10:24.654Z,33.19
2022-08-04T09:11:24.623Z,33.18
2022-08-04T09:12:25.605Z,33.28
2022-08-04T09:13:24.643Z,33.29
2022-08-04T09:14:24.662Z,33.37
2022-08-04T09:15:24.676Z,33.44
2022-08-04T09:16:24.674Z,33.38
2022-08-04T09:17:24.685Z,33.45
2022-08-04T09:18:24.691Z,33.47
2022-08-04T09:19:38.945Z,33.51
2022-08-04T09:20:25.170Z,33.44
2022-08-04T09:21:24.723Z,33.56
2022-08-04T09:22:24.756Z,33.61
2022-08-04T09:23:24.746Z,33.66
2022-08-04T09:24:35.405Z,33.69
2022-08-04T09:25:24.764Z,33.81
2022-08-04T09:26:24.787Z,33.86
2022-08-04T09:27:24.798Z,33.88
2022-08-04T09:28:50.834Z,33.90
2022-08-04T09:29:24.815Z,34.03
2022-08-04T09:30:24.835Z,34.02
2022-08-04T09:31:24.843Z,34.06
2022-08-04T09:32:24.856Z,34.06
2022-08-04T09:33:45.284Z,34.12
2022-08-04T09:34:24.856Z,34.13
2022-08-04T09:35:24.880Z,34.16
2022-08-04T09:36:25.822Z,34.24
2022-08-04T09:37:24.891Z,34.24
2022-08-04T09:38:24.932Z,34.28
2022-08-04T09:39:24.971Z,34.28
2022-08-04T09:40:29.040Z,34.37
2022-08-04T09:41:49.656Z,34.31
2022-08-04T09:42:25.973Z,34.34
2022-08-04T09:43:24.964Z,34.37
2022-08-04T09:44:50.267Z,34.40
2022-08-04T09:45:26.483Z,34.42
2022-08-04T09:46:24.985Z,34.40
2022-08-04T09:47:25.007Z,34.44
2022-08-04T09:48:25.019Z,34.44
2022-08-04T09:49:25.040Z,34.43
2022-08-04T09:50:25.047Z,34.50
2022-08-04T09:51:25.048Z,34.47
2022-08-04T09:52:25.048Z,34.56
2022-08-04T09:53:25.063Z,34.59
2022-08-04T09:54:30.553Z,34.61
2022-08-04T09:55:25.106Z,34.58
2022-08-04T09:56:25.088Z,34.64
2022-08-04T09:57:25.104Z,34.64
2022-08-04T09:58:25.121Z,34.73
2022-08-04T09:59:25.138Z,34.72
2022-08-04T10:00:40.583Z,34.72
2022-08-04T10:01:25.157Z,34.69
2022-08-04T10:02:25.168Z,34.73
2022-08-04T10:03:25.263Z,34.70
2022-08-04T10:04:25.182Z,34.78
2022-08-04T10:05:25.226Z,34.72
2022-08-04T10:06:25.208Z,34.70
2022-08-04T10:07:25.223Z,34.72
2022-08-04T10:08:25.220Z,34.77
2022-08-04T10:09:25.245Z,34.77
2022-08-04T10:10:25.270Z,34.89
2022-08-04T10:11:25.275Z,35.02
2022-08-04T10:12:25.271Z,34.94
2022-08-04T10:13:25.298Z,34.92
2022-08-04T10:14:25.286Z,35.09
2022-08-04T10:15:25.352Z,35.26
2022-08-04T10:16:25.330Z,35.15
2022-08-04T10:17:25.334Z,35.23
2022-08-04T10:18:25.332Z,35.36
2022-08-04T10:19:25.377Z,35.29
2022-08-04T10:20:44.305Z,35.41
2022-08-04T10:21:25.380Z,35.53
2022-08-04T10:22:28.401Z,35.56
2022-08-04T10:23:25.394Z,35.63
2022-08-04T10:24:25.423Z,35.72
2022-08-04T10:26:02.990Z,35.77
2022-08-04T10:26:25.421Z,35.87
2022-08-04T10:27:25.454Z,35.82
2022-08-04T10:28:25.454Z,35.94
2022-08-04T10:29:25.471Z,36.03
2022-08-04T10:30:25.503Z,36.01
2022-08-04T10:31:25.491Z,36.22
2022-08-04T10:32:25.501Z,36.13
2022-08-04T10:33:25.541Z,36.03
2022-08-04T10:34:25.515Z,35.97
2022-08-04T10:35:25.554Z,36.07
2022-08-04T10:36:25.545Z,36.19
2022-08-04T10:37:54.660Z,36.32
2022-08-04T10:38:27.173Z,36.41
2022-08-04T10:39:43.269Z,36.46
2022-08-04T10:40:25.625Z,36.56
2022-08-04T10:41:25.629Z,36.64
2022-08-04T10:42:25.612Z,36.78
2022-08-04T10:43:25.654Z,36.83
2022-08-04T10:44:25.668Z,36.91
2022-08-04T10:45:25.661Z,37.00
2022-08-04T10:46:25.679Z,37.06
2022-08-04T10:47:25.684Z,37.09
2022-08-04T10:48:34.220Z,37.10
2022-08-04T10:49:25.736Z,37.34
2022-08-04T10:50:25.750Z,37.49
2022-08-04T10:51:25.755Z,37.56
2022-08-04T10:52:25.773Z,37.79
2022-08-04T10:53:25.810Z,37.79
2022-08-04T10:54:25.810Z,37.82
2022-08-04T10:56:07.232Z,37.94
2022-08-04T10:56:25.852Z,38.15
2022-08-04T10:57:25.886Z,38.40
2022-08-04T10:58:47.045Z,38.42
2022-08-04T10:59:25.910Z,38.52
2022-08-04T11:00:25.917Z,38.41
2022-08-04T11:01:59.925Z,38.53
2022-08-04T11:02:25.944Z,38.65
2022-08-04T11:03:26.008Z,38.81
2022-08-04T11:04:27.837Z,38.95
2022-08-04T11:05:26.011Z,39.07
2022-08-04T11:06:26.029Z,39.21
2022-08-04T11:07:26.031Z,39.47
2022-08-04T11:08:26.076Z,39.67
2022-08-04T11:09:26.086Z,39.92
2022-08-04T11:10:26.114Z,40.31
2022-08-04T11:11:26.111Z,40.46
2022-08-04T11:12:26.138Z,40.61
2022-08-04T11:13:30.307Z,40.46
2022-08-04T11:14:26.172Z,40.72
2022-08-04T11:15:26.217Z,40.67
2022-08-04T11:16:26.240Z,40.99
2022-08-04T11:17:26.268Z,41.16
2022-08-04T11:18:26.250Z,41.41
2022-08-04T11:19:44.734Z,41.62
2022-08-04T11:20:35.521Z,41.70
2022-08-04T11:21:26.319Z,41.86
2022-08-04T11:22:26.341Z,42.06
2022-08-04T11:23:26.357Z,42.30
2022-08-04T11:24:26.434Z,42.31
2022-08-04T11:25:26.406Z,42.20
2022-08-04T11:26:26.428Z,42.31
2022-08-04T11:27:26.433Z,42.40
2022-08-04T11:28:26.481Z,42.64
2022-08-04T11:29:26.484Z,42.86
2022-08-04T11:30:26.523Z,43.11
2022-08-04T11:31:26.539Z,42.96
2022-08-04T11:32:26.549Z,42.86
2022-08-04T11:33:26.554Z,42.78
2022-08-04T11:34:26.614Z,42.59
2022-08-04T11:35:26.602Z,41.96
2022-08-04T11:36:26.628Z,42.02
2022-08-04T11:37:26.813Z,42.17
2022-08-04T11:38:31.904Z,42.39
2022-08-04T11:39:26.729Z,42.50
2022-08-04T11:40:26.708Z,42.76
2022-08-04T11:41:26.717Z,42.57
2022-08-04T11:42:26.735Z,42.28
2022-08-04T11:43:58.634Z,42.20
2022-08-04T11:44:26.774Z,41.91
2022-08-04T11:45:26.789Z,41.90
2022-08-04T11:46:26.817Z,41.76
2022-08-04T11:47:26.824Z,41.76
2022-08-04T11:48:26.837Z,42.02
2022-08-04T11:49:26.863Z,41.89
2022-08-04T11:50:26.902Z,41.93
2022-08-04T11:51:26.880Z,41.67
2022-08-04T11:52:26.903Z,41.55
2022-08-04T11:53:36.395Z,41.20
2022-08-04T11:54:26.948Z,40.91
2022-08-04T11:55:26.979Z,40.45
2022-08-04T11:56:37.274Z,40.19
2022-08-04T11:57:35.951Z,40.00
2022-08-04T11:58:27.009Z,40.06
2022-08-04T11:59:27.039Z,40.06
2022-08-04T12:00:27.095Z,40.13
2022-08-04T12:01:27.048Z,40.07
2022-08-04T12:02:27.125Z,40.15
2022-08-04T12:03:27.085Z,40.19
2022-08-04T12:04:27.101Z,39.94
2022-08-04T12:05:37.041Z,39.77
2022-08-04T12:06:27.126Z,39.78
2022-08-04T12:07:31.345Z,39.70
2022-08-04T12:08:27.187Z,39.55
2022-08-04T12:09:27.174Z,39.32
2022-08-04T12:10:42.229Z,39.21
2022-08-04T12:11:27.214Z,38.99
2022-08-04T12:12:27.240Z,38.88
2022-08-04T12:13:27.276Z,38.61
2022-08-04T12:14:27.261Z,38.65
2022-08-04T12:15:27.272Z,38.52
2022-08-04T12:16:27.823Z,38.47
2022-08-04T12:17:27.312Z,38.57
2022-08-04T12:18:27.326Z,38.59
2022-08-04T12:19:34.985Z,38.59
2022-08-04T12:20:40.308Z,38.54
2022-08-04T12:21:27.360Z,38.52
2022-08-04T12:22:31.493Z,38.44
2022-08-04T12:23:27.382Z,38.35
2022-08-04T12:24:27.394Z,38.35
2022-08-04T12:25:27.439Z,38.30
2022-08-04T12:26:27.432Z,38.25
2022-08-04T12:27:30.861Z,38.34
2022-08-04T12:28:27.504Z,38.23
2022-08-04T12:29:27.479Z,38.23
2022-08-04T12:31:02.220Z,38.19
2022-08-04T12:31:27.513Z,38.11
2022-08-04T12:32:27.524Z,38.03
2022-08-04T12:34:02.794Z,37.93
2022-08-04T12:34:29.897Z,37.88
2022-08-04T12:35:27.561Z,37.86
2022-08-04T12:36:27.565Z,37.96
2022-08-04T12:37:27.620Z,38.01
2022-08-04T12:38:27.631Z,37.98
2022-08-04T12:39:27.668Z,37.98
2022-08-04T12:40:30.208Z,37.96
2022-08-04T12:41:27.642Z,38.01
2022-08-04T12:42:27.665Z,37.88
2022-08-04T12:43:27.676Z,37.96
2022-08-04T12:44:32.625Z,37.93
2022-08-04T12:45:27.701Z,38.00
2022-08-04T12:46:27.699Z,37.98
2022-08-04T12:47:36.690Z,37.98
2022-08-04T12:48:27.760Z,38.01
2022-08-04T12:49:27.745Z,37.89
2022-08-04T12:50:27.782Z,37.91
2022-08-04T12:52:05.918Z,37.89
2022-08-04T12:52:51.794Z,37.81